createdAt,value
2018-12-25T00:00:00.478Z,3.30
2018-12-25T00:01:00.443Z,3.80
2018-12-25T00:02:00.462Z,3.00
2018-12-25T00:03:00.435Z,4.70
2018-12-25T00:04:00.413Z,4.40
2018-12-25T00:05:00.456Z,3.30
2018-12-25T00:06:00.391Z,3.80
2018-12-25T00:07:00.383Z,3.90
2018-12-25T00:08:00.366Z,3.90
2018-12-25T00:09:00.393Z,3.80
2018-12-25T00:10:00.377Z,3.10
2018-12-25T00:11:00.345Z,3.50
2018-12-25T00:12:00.322Z,3.20
2018-12-25T00:13:00.310Z,3.10
2018-12-25T00:14:00.309Z,4.20
2018-12-25T00:15:00.305Z,3.10
2018-12-25T00:16:00.316Z,3.90
2018-12-25T00:17:00.267Z,3.20
2018-12-25T00:18:00.256Z,3.10
2018-12-25T00:19:06.112Z,3.30
2018-12-25T00:20:01.234Z,3.30
2018-12-25T00:21:00.234Z,4.00
2018-12-25T00:22:00.234Z,3.20
2018-12-25T00:23:00.198Z,3.70
2018-12-25T00:24:00.192Z,3.20
2018-12-25T00:25:00.187Z,3.40
2018-12-25T00:26:00.178Z,3.70
2018-12-25T00:27:00.156Z,3.10
2018-12-25T00:28:00.159Z,3.40
2018-12-25T00:29:00.154Z,3.60
2018-12-25T00:30:00.153Z,3.60
2018-12-25T00:31:00.139Z,3.20
2018-12-25T00:32:00.100Z,3.30
2018-12-25T00:33:00.092Z,3.30
2018-12-25T00:34:00.081Z,3.40
2018-12-25T00:35:00.274Z,3.90
2018-12-25T00:36:00.075Z,3.20
2018-12-25T00:37:00.052Z,3.60
2018-12-25T00:38:00.033Z,3.10
2018-12-25T00:39:00.022Z,3.60
2018-12-25T00:40:00.019Z,3.10
2018-12-25T00:41:00.026Z,3.40
2018-12-25T00:42:00.012Z,3.40
2018-12-25T00:43:00.001Z,3.90
2018-12-25T00:44:00.034Z,3.50
2018-12-25T00:44:59.966Z,3.10
2018-12-25T00:45:59.953Z,3.30
2018-12-25T00:46:59.959Z,3.50
2018-12-25T00:47:59.933Z,3.20
2018-12-25T00:48:59.930Z,3.40
2018-12-25T00:49:59.901Z,3.20
2018-12-25T00:50:59.888Z,3.20
2018-12-25T00:51:59.905Z,3.20
2018-12-25T00:52:59.866Z,3.10
2018-12-25T00:53:59.855Z,3.50
2018-12-25T00:54:59.852Z,3.90
2018-12-25T00:55:59.835Z,3.30
2018-12-25T00:56:59.848Z,3.20
2018-12-25T00:57:59.837Z,3.20
2018-12-25T00:58:59.807Z,4.60
2018-12-25T00:59:59.791Z,3.60
2018-12-25T01:00:59.779Z,3.40
2018-12-25T01:01:59.778Z,3.90
2018-12-25T01:02:59.758Z,3.20
2018-12-25T01:03:59.768Z,3.20
2018-12-25T01:04:59.747Z,3.70
2018-12-25T01:05:59.723Z,3.30
2018-12-25T01:06:59.721Z,3.10
2018-12-25T01:07:59.699Z,3.30
2018-12-25T01:08:59.690Z,4.70
2018-12-25T01:09:59.681Z,4.50
2018-12-25T01:10:59.721Z,2.90
2018-12-25T01:11:59.670Z,3.70
2018-12-25T01:12:59.664Z,3.50
2018-12-25T01:13:59.633Z,3.40
2018-12-25T01:14:59.626Z,3.20
2018-12-25T01:15:59.614Z,3.90
2018-12-25T01:16:59.644Z,3.10
2018-12-25T01:17:59.609Z,3.20
2018-12-25T01:18:59.579Z,3.30
2018-12-25T01:19:59.570Z,3.10
2018-12-25T01:20:59.566Z,3.80
2018-12-25T01:21:59.550Z,3.30
2018-12-25T01:22:59.551Z,3.50
2018-12-25T01:23:59.535Z,3.60
2018-12-25T01:24:59.524Z,3.30
2018-12-25T01:25:59.502Z,3.10
2018-12-25T01:26:59.489Z,3.60
2018-12-25T01:27:59.489Z,3.20
2018-12-25T01:28:59.468Z,3.20
2018-12-25T01:29:59.473Z,3.10
2018-12-25T01:30:59.455Z,3.60
2018-12-25T01:31:59.478Z,3.60
2018-12-25T01:32:59.433Z,3.20
2018-12-25T01:33:59.412Z,2.90
2018-12-25T01:34:59.400Z,3.20
2018-12-25T01:35:59.389Z,3.50
2018-12-25T01:36:59.384Z,4.00
2018-12-25T01:37:59.390Z,3.70
2018-12-25T01:38:59.357Z,4.60
2018-12-25T01:39:59.354Z,3.40
2018-12-25T01:40:59.334Z,3.10
2018-12-25T01:41:59.329Z,3.80
2018-12-25T01:42:59.327Z,2.90
2018-12-25T01:43:59.328Z,3.50
2018-12-25T01:44:59.311Z,3.20
2018-12-25T01:45:59.301Z,2.90
2018-12-25T01:46:59.268Z,3.50
2018-12-25T01:47:59.281Z,3.80
2018-12-25T01:48:59.252Z,3.30
2018-12-25T01:49:59.233Z,3.00
2018-12-25T01:50:59.223Z,2.80
2018-12-25T01:51:59.216Z,3.30
2018-12-25T01:52:59.205Z,3.00
2018-12-25T01:53:59.302Z,3.30
2018-12-25T01:54:59.186Z,3.00
2018-12-25T01:55:59.175Z,3.50
2018-12-25T01:56:59.162Z,2.80
2018-12-25T01:57:59.229Z,2.90
2018-12-25T01:58:59.229Z,3.10
2018-12-25T01:59:59.138Z,3.10
2018-12-25T02:00:59.118Z,3.30
2018-12-25T02:01:59.102Z,2.70
2018-12-25T02:02:59.104Z,3.00
2018-12-25T02:03:59.116Z,3.20
2018-12-25T02:04:59.102Z,3.10
2018-12-25T02:05:59.079Z,3.00
2018-12-25T02:06:59.044Z,3.00
2018-12-25T02:07:59.092Z,3.60
2018-12-25T02:08:59.037Z,3.40
2018-12-25T02:09:59.020Z,3.30
2018-12-25T02:10:59.008Z,2.90
2018-12-25T02:11:58.990Z,3.00
2018-12-25T02:12:59.002Z,3.10
2018-12-25T02:13:58.998Z,2.90
2018-12-25T02:14:58.965Z,3.60
2018-12-25T02:15:59.024Z,3.00
2018-12-25T02:16:58.952Z,3.60
2018-12-25T02:17:58.926Z,3.00
2018-12-25T02:18:58.963Z,2.90
2018-12-25T02:19:58.907Z,3.00
2018-12-25T02:20:58.896Z,2.70
2018-12-25T02:21:58.962Z,3.10
2018-12-25T02:22:58.961Z,3.60
2018-12-25T02:23:58.926Z,2.90
2018-12-25T02:24:58.858Z,3.50
2018-12-25T02:25:58.841Z,3.00
2018-12-25T02:26:58.832Z,3.10
2018-12-25T02:27:58.833Z,3.00
2018-12-25T02:28:58.930Z,3.10
2018-12-25T02:29:58.882Z,2.90
2018-12-25T02:30:58.799Z,3.20
2018-12-25T02:31:58.780Z,3.00
2018-12-25T02:32:58.796Z,3.70
2018-12-25T02:33:58.771Z,2.90
2018-12-25T02:34:58.796Z,3.20
2018-12-25T02:35:58.728Z,2.90
2018-12-25T02:36:58.745Z,3.20
2018-12-25T02:37:58.711Z,2.70
2018-12-25T02:38:58.707Z,3.00
2018-12-25T02:39:58.706Z,3.70
2018-12-25T02:40:58.678Z,2.80
2018-12-25T02:41:58.712Z,2.60
2018-12-25T02:42:58.682Z,3.00
2018-12-25T02:43:58.678Z,3.40
2018-12-25T02:44:58.642Z,2.70
2018-12-25T02:45:58.643Z,2.80
2018-12-25T02:46:58.615Z,2.80
2018-12-25T02:47:58.605Z,3.10
2018-12-25T02:48:58.584Z,4.00
2018-12-25T02:49:58.678Z,2.90
2018-12-25T02:50:58.566Z,2.70
2018-12-25T02:51:58.562Z,2.90
2018-12-25T02:52:58.550Z,2.60
2018-12-25T02:53:58.525Z,3.00
2018-12-25T02:54:58.535Z,3.20
2018-12-25T02:55:58.516Z,2.70
2018-12-25T02:56:58.493Z,2.40
2018-12-25T02:57:58.478Z,2.60
2018-12-25T02:58:58.474Z,2.70
2018-12-25T02:59:58.464Z,2.50
2018-12-25T03:00:58.450Z,3.00
2018-12-25T03:01:58.452Z,3.30
2018-12-25T03:02:58.448Z,2.60
2018-12-25T03:03:58.425Z,2.70
2018-12-25T03:04:58.426Z,2.60
2018-12-25T03:05:58.391Z,4.40
2018-12-25T03:06:58.381Z,2.90
2018-12-25T03:07:58.375Z,3.00
2018-12-25T03:08:58.356Z,2.60
2018-12-25T03:09:58.386Z,3.20
2018-12-25T03:10:58.343Z,2.60
2018-12-25T03:11:58.330Z,3.10
2018-12-25T03:12:58.327Z,2.70
2018-12-25T03:13:58.342Z,2.40
2018-12-25T03:14:58.333Z,2.60
2018-12-25T03:15:58.294Z,2.80
2018-12-25T03:16:58.346Z,2.60
2018-12-25T03:17:58.265Z,2.60
2018-12-25T03:18:58.248Z,2.90
2018-12-25T03:20:00.012Z,3.00
2018-12-25T03:20:58.243Z,2.40
2018-12-25T03:21:58.226Z,2.50
2018-12-25T03:22:58.224Z,2.60
2018-12-25T03:23:58.192Z,2.50
2018-12-25T03:24:58.210Z,2.50
2018-12-25T03:25:58.212Z,2.90
2018-12-25T03:26:58.176Z,3.00
2018-12-25T03:27:58.150Z,2.30
2018-12-25T03:28:58.152Z,2.60
2018-12-25T03:29:58.131Z,2.70
2018-12-25T03:30:58.138Z,2.70
2018-12-25T03:31:58.110Z,2.40
2018-12-25T03:32:58.093Z,2.50
2018-12-25T03:33:58.111Z,2.60
2018-12-25T03:34:58.066Z,3.00
2018-12-25T03:35:58.077Z,2.50
2018-12-25T03:36:58.043Z,2.40
2018-12-25T03:37:58.034Z,2.50
2018-12-25T03:38:58.022Z,2.50
2018-12-25T03:39:58.059Z,2.90
2018-12-25T03:40:58.023Z,3.10
2018-12-25T03:41:58.025Z,2.40
2018-12-25T03:42:57.982Z,2.40
2018-12-25T03:43:57.969Z,2.90
2018-12-25T03:44:57.959Z,2.60
2018-12-25T03:45:57.955Z,2.50
2018-12-25T03:46:57.939Z,2.90
2018-12-25T03:47:57.965Z,2.70
2018-12-25T03:48:57.911Z,2.80
2018-12-25T03:49:57.903Z,2.40
2018-12-25T03:50:57.902Z,2.50
2018-12-25T03:51:57.879Z,3.10
2018-12-25T03:52:57.949Z,2.40
2018-12-25T03:53:57.872Z,2.60
2018-12-25T03:54:57.858Z,2.70
2018-12-25T03:55:57.862Z,2.60
2018-12-25T03:56:57.823Z,2.90
2018-12-25T03:57:57.811Z,2.30
2018-12-25T03:58:57.800Z,2.40
2018-12-25T03:59:57.790Z,2.40
2018-12-25T04:00:57.787Z,2.40
2018-12-25T04:01:57.784Z,2.70
2018-12-25T04:02:57.763Z,2.20
2018-12-25T04:03:57.745Z,2.60
2018-12-25T04:04:57.737Z,2.40
2018-12-25T04:05:57.745Z,2.40
2018-12-25T04:06:57.718Z,2.40
2018-12-25T04:07:57.717Z,2.00
2018-12-25T04:08:57.710Z,2.00
2018-12-25T04:09:57.690Z,2.30
2018-12-25T04:10:57.682Z,2.20
2018-12-25T04:11:57.700Z,3.00
2018-12-25T04:12:57.664Z,2.20
2018-12-25T04:13:57.705Z,2.60
2018-12-25T04:14:57.628Z,2.40
2018-12-25T04:15:57.635Z,2.50
2018-12-25T04:16:57.615Z,2.40
2018-12-25T04:17:57.591Z,2.60
2018-12-25T04:18:57.586Z,2.40
2018-12-25T04:19:57.569Z,2.10
2018-12-25T04:20:57.558Z,2.30
2018-12-25T04:21:57.556Z,2.90
2018-12-25T04:22:57.538Z,2.20
2018-12-25T04:23:57.532Z,2.30
2018-12-25T04:24:57.519Z,2.40
2018-12-25T04:25:57.503Z,2.70
2018-12-25T04:26:57.558Z,2.10
2018-12-25T04:27:57.491Z,2.20
2018-12-25T04:28:57.474Z,2.20
2018-12-25T04:29:57.488Z,2.30
2018-12-25T04:30:57.552Z,2.20
2018-12-25T04:31:57.459Z,3.40
2018-12-25T04:32:57.439Z,2.30
2018-12-25T04:33:57.443Z,2.20
2018-12-25T04:34:57.466Z,2.20
2018-12-25T04:35:57.414Z,2.30
2018-12-25T04:36:57.390Z,2.40
2018-12-25T04:37:57.385Z,2.00
2018-12-25T04:38:57.360Z,2.60
2018-12-25T04:39:57.350Z,2.30
2018-12-25T04:40:57.347Z,2.20
2018-12-25T04:41:57.344Z,2.40
2018-12-25T04:42:57.313Z,2.40
2018-12-25T04:43:57.305Z,2.20
2018-12-25T04:44:57.293Z,2.60
2018-12-25T04:45:57.299Z,2.30
2018-12-25T04:46:57.293Z,2.30
2018-12-25T04:47:57.297Z,1.90
2018-12-25T04:48:57.309Z,2.60
2018-12-25T04:49:57.244Z,2.10
2018-12-25T04:50:57.250Z,2.20
2018-12-25T04:51:57.226Z,1.90
2018-12-25T04:52:57.241Z,2.10
2018-12-25T04:53:57.203Z,2.10
2018-12-25T04:54:57.187Z,2.50
2018-12-25T04:55:57.188Z,2.10
2018-12-25T04:56:57.155Z,2.30
2018-12-25T04:57:57.181Z,2.00
2018-12-25T04:58:57.148Z,2.20
2018-12-25T04:59:57.133Z,2.20
2018-12-25T05:00:57.134Z,1.90
2018-12-25T05:01:57.101Z,2.00
2018-12-25T05:02:57.101Z,1.90
2018-12-25T05:03:57.086Z,2.10
2018-12-25T05:04:57.067Z,1.90
2018-12-25T05:05:57.097Z,1.90
2018-12-25T05:06:57.054Z,2.20
2018-12-25T05:07:57.052Z,2.00
2018-12-25T05:08:57.021Z,1.90
2018-12-25T05:09:57.017Z,2.10
2018-12-25T05:10:57.007Z,2.20
2018-12-25T05:11:56.991Z,2.00
2018-12-25T05:12:56.999Z,1.90
2018-12-25T05:13:56.969Z,1.90
2018-12-25T05:14:56.964Z,2.00
2018-12-25T05:15:56.946Z,2.10
2018-12-25T05:16:56.932Z,2.00
2018-12-25T05:17:56.934Z,2.40
2018-12-25T05:18:56.924Z,1.80
2018-12-25T05:19:56.938Z,2.40
2018-12-25T05:20:56.896Z,1.90
2018-12-25T05:21:56.887Z,2.00
2018-12-25T05:22:56.878Z,1.80
2018-12-25T05:23:56.857Z,1.80
2018-12-25T05:24:56.852Z,1.80
2018-12-25T05:25:56.836Z,1.70
2018-12-25T05:26:56.821Z,1.90
2018-12-25T05:27:56.836Z,1.80
2018-12-25T05:28:56.798Z,1.90
2018-12-25T05:29:56.795Z,2.10
2018-12-25T05:30:56.779Z,2.30
2018-12-25T05:31:56.765Z,1.70
2018-12-25T05:32:56.766Z,2.90
2018-12-25T05:33:56.802Z,1.70
2018-12-25T05:34:56.734Z,1.80
2018-12-25T05:35:56.728Z,1.70
2018-12-25T05:36:56.713Z,2.10
2018-12-25T05:37:56.710Z,1.90
2018-12-25T05:38:56.689Z,1.70
2018-12-25T05:39:56.698Z,1.70
2018-12-25T05:40:56.671Z,2.00
2018-12-25T05:41:56.658Z,1.80
2018-12-25T05:42:56.672Z,1.60
2018-12-25T05:43:56.632Z,2.10
2018-12-25T05:44:56.639Z,1.80
2018-12-25T05:45:56.617Z,2.20
2018-12-25T05:46:56.607Z,1.90
2018-12-25T05:47:56.678Z,1.70
2018-12-25T05:48:56.647Z,1.80
2018-12-25T05:49:56.581Z,1.80
2018-12-25T05:50:56.582Z,1.70
2018-12-25T05:51:56.561Z,1.60
2018-12-25T05:52:56.555Z,2.00
2018-12-25T05:53:56.530Z,2.20
2018-12-25T05:54:56.580Z,1.80
2018-12-25T05:55:56.507Z,1.60
2018-12-25T05:56:56.489Z,1.70
2018-12-25T05:57:56.497Z,2.60
2018-12-25T05:58:56.478Z,1.50
2018-12-25T05:59:56.455Z,1.70
2018-12-25T06:00:56.449Z,1.70
2018-12-25T06:01:56.432Z,1.90
2018-12-25T06:02:56.448Z,2.00
2018-12-25T06:03:56.426Z,1.70
2018-12-25T06:04:56.401Z,1.80
2018-12-25T06:05:56.391Z,1.70
2018-12-25T06:06:56.380Z,2.20
2018-12-25T06:07:56.368Z,1.70
2018-12-25T06:08:56.423Z,1.50
2018-12-25T06:09:56.362Z,1.70
2018-12-25T06:10:56.332Z,1.70
2018-12-25T06:11:56.323Z,1.70
2018-12-25T06:12:56.314Z,1.70
2018-12-25T06:13:56.309Z,3.00
2018-12-25T06:14:56.310Z,1.70
2018-12-25T06:15:56.295Z,1.60
2018-12-25T06:16:56.354Z,1.70
2018-12-25T06:17:56.257Z,1.60
2018-12-25T06:18:56.255Z,1.60
2018-12-25T06:19:56.233Z,1.50
2018-12-25T06:20:56.228Z,1.90
2018-12-25T06:21:56.224Z,1.70
2018-12-25T06:22:56.215Z,1.60
2018-12-25T06:23:56.205Z,1.70
2018-12-25T06:24:56.181Z,1.60
2018-12-25T06:25:56.166Z,1.70
2018-12-25T06:26:56.165Z,1.30
2018-12-25T06:27:56.147Z,1.60
2018-12-25T06:28:56.158Z,1.50
2018-12-25T06:29:56.127Z,2.20
2018-12-25T06:30:56.113Z,1.60
2018-12-25T06:31:56.115Z,1.70
2018-12-25T06:32:56.088Z,1.60
2018-12-25T06:33:56.094Z,1.70
2018-12-25T06:34:56.079Z,1.60
2018-12-25T06:35:56.057Z,1.50
2018-12-25T06:36:56.055Z,1.90
2018-12-25T06:37:56.042Z,1.50
2018-12-25T06:38:56.039Z,1.60
2018-12-25T06:39:56.013Z,1.70
2018-12-25T06:40:56.046Z,1.60
2018-12-25T06:41:55.992Z,1.50
2018-12-25T06:42:55.979Z,1.50
2018-12-25T06:43:55.991Z,1.60
2018-12-25T06:44:55.956Z,1.70
2018-12-25T06:45:55.949Z,1.60
2018-12-25T06:46:55.969Z,1.60
2018-12-25T06:47:55.922Z,1.60
2018-12-25T06:48:55.914Z,1.50
2018-12-25T06:49:55.919Z,1.30
2018-12-25T06:51:03.559Z,1.50
2018-12-25T06:51:56.882Z,1.70
2018-12-25T06:52:55.886Z,1.60
2018-12-25T06:53:55.882Z,1.60
2018-12-25T06:54:55.881Z,1.40
2018-12-25T06:55:55.859Z,1.50
2018-12-25T06:56:55.825Z,1.40
2018-12-25T06:57:55.812Z,1.20
2018-12-25T06:58:55.803Z,1.40
2018-12-25T06:59:55.798Z,1.40
2018-12-25T07:00:55.778Z,1.30
2018-12-25T07:01:55.807Z,1.10
2018-12-25T07:02:55.756Z,1.20
2018-12-25T07:03:55.749Z,1.20
2018-12-25T07:04:55.741Z,1.20
2018-12-25T07:05:55.726Z,1.00
2018-12-25T07:06:55.725Z,1.10
2018-12-25T07:07:55.730Z,1.20
2018-12-25T07:08:55.690Z,1.00
2018-12-25T07:09:55.699Z,0.90
2018-12-25T07:10:55.667Z,0.90
2018-12-25T07:11:55.666Z,0.90
2018-12-25T07:12:55.652Z,0.80
2018-12-25T07:13:55.644Z,0.90
2018-12-25T07:14:55.636Z,0.80
2018-12-25T07:15:55.617Z,0.80
2018-12-25T07:16:55.602Z,0.90
2018-12-25T07:17:55.597Z,0.90
2018-12-25T07:18:55.578Z,0.90
2018-12-25T07:19:55.576Z,1.30
2018-12-25T07:20:55.555Z,0.90
2018-12-25T07:21:55.548Z,0.80
2018-12-25T07:22:55.546Z,0.70
2018-12-25T07:23:55.529Z,0.70
2018-12-25T07:24:55.543Z,0.80
2018-12-25T07:25:55.505Z,0.70
2018-12-25T07:26:55.511Z,0.60
2018-12-25T07:27:55.503Z,0.80
2018-12-25T07:28:55.500Z,0.70
2018-12-25T07:29:55.471Z,1.00
2018-12-25T07:30:55.471Z,0.70
2018-12-25T07:31:55.439Z,0.80
2018-12-25T07:32:55.425Z,0.70
2018-12-25T07:33:55.430Z,0.70
2018-12-25T07:34:55.420Z,0.70
2018-12-25T07:35:55.397Z,0.70
2018-12-25T07:36:55.385Z,0.70
2018-12-25T07:37:55.374Z,0.80
2018-12-25T07:38:55.370Z,0.80
2018-12-25T07:39:55.360Z,0.80
2018-12-25T07:40:55.354Z,0.70
2018-12-25T07:41:55.324Z,0.80
2018-12-25T07:42:55.314Z,0.70
2018-12-25T07:43:55.300Z,0.80
2018-12-25T07:44:55.323Z,0.70
2018-12-25T07:45:55.307Z,0.70
2018-12-25T07:46:55.271Z,0.60
2018-12-25T07:47:55.255Z,0.80
2018-12-25T07:48:55.250Z,0.70
2018-12-25T07:49:55.238Z,0.60
2018-12-25T07:50:55.233Z,0.60
2018-12-25T07:51:55.233Z,0.70
2018-12-25T07:52:55.201Z,0.70
2018-12-25T07:53:55.200Z,0.80
2018-12-25T07:54:55.177Z,0.60
2018-12-25T07:55:55.179Z,0.70
2018-12-25T07:56:55.159Z,0.70
2018-12-25T07:57:55.183Z,0.70
2018-12-25T07:58:55.140Z,0.80
2018-12-25T07:59:55.128Z,0.80
2018-12-25T08:00:55.125Z,0.70
2018-12-25T08:01:55.102Z,0.80
2018-12-25T08:02:55.093Z,0.90
2018-12-25T08:03:55.096Z,0.80
2018-12-25T08:04:55.094Z,0.80
2018-12-25T08:05:55.081Z,0.80
2018-12-25T08:06:55.092Z,0.90
2018-12-25T08:07:55.037Z,0.90
2018-12-25T08:08:55.029Z,1.90
2018-12-25T08:09:55.017Z,0.90
2018-12-25T08:10:55.004Z,1.10
2018-12-25T08:11:54.989Z,0.80
2018-12-25T08:12:55.000Z,0.80
2018-12-25T08:13:55.120Z,0.90
2018-12-25T08:14:54.984Z,1.00
2018-12-25T08:15:55.000Z,1.10
2018-12-25T08:16:54.984Z,1.00
2018-12-25T08:17:54.927Z,1.20
2018-12-25T08:18:54.945Z,0.90
2018-12-25T08:19:54.902Z,0.90
2018-12-25T08:20:54.911Z,1.10
2018-12-25T08:21:54.890Z,0.80
2018-12-25T08:23:02.413Z,0.90
2018-12-25T08:23:55.857Z,0.90
2018-12-25T08:24:54.964Z,1.00
2018-12-25T08:25:54.877Z,1.90
2018-12-25T08:26:54.825Z,1.00
2018-12-25T08:27:54.887Z,0.80
2018-12-25T08:28:54.808Z,0.90
2018-12-25T08:29:54.794Z,1.20
2018-12-25T08:30:54.800Z,0.90
2018-12-25T08:31:54.768Z,1.00
2018-12-25T08:32:54.754Z,1.00
2018-12-25T08:33:54.766Z,1.10
2018-12-25T08:34:54.739Z,1.10
2018-12-25T08:35:54.726Z,1.00
2018-12-25T08:36:54.725Z,1.00
2018-12-25T08:37:54.724Z,0.90
2018-12-25T08:38:54.688Z,1.00
2018-12-25T08:39:54.722Z,0.90
2018-12-25T08:40:54.671Z,1.10
2018-12-25T08:41:54.667Z,1.10
2018-12-25T08:42:54.647Z,0.90
2018-12-25T08:43:54.638Z,0.90
2018-12-25T08:44:54.621Z,1.20
2018-12-25T08:45:54.628Z,1.10
2018-12-25T08:46:54.610Z,1.10
2018-12-25T08:47:54.595Z,0.90
2018-12-25T08:48:54.581Z,0.90
2018-12-25T08:49:54.570Z,1.50
2018-12-25T08:50:54.569Z,1.00
2018-12-25T08:51:54.552Z,0.90
2018-12-25T08:52:54.546Z,1.00
2018-12-25T08:53:54.546Z,1.00
2018-12-25T08:54:54.512Z,1.20
2018-12-25T08:55:54.505Z,1.10
2018-12-25T08:56:54.497Z,1.20
2018-12-25T08:57:54.934Z,2.10
2018-12-25T08:58:54.555Z,0.90
2018-12-25T08:59:54.462Z,1.10
2018-12-25T09:00:54.446Z,1.10
2018-12-25T09:01:54.449Z,1.00
2018-12-25T09:02:54.427Z,1.00
2018-12-25T09:03:54.410Z,1.20
2018-12-25T09:04:54.407Z,1.10
2018-12-25T09:05:54.445Z,1.00
2018-12-25T09:06:54.425Z,1.30
2018-12-25T09:07:54.379Z,1.10
2018-12-25T09:08:54.403Z,1.20
2018-12-25T09:09:54.349Z,1.00
2018-12-25T09:10:54.347Z,1.10
2018-12-25T09:11:54.347Z,1.20
2018-12-25T09:12:54.333Z,0.90
2018-12-25T09:13:54.304Z,1.20
2018-12-25T09:14:54.321Z,1.00
2018-12-25T09:15:54.281Z,1.00
2018-12-25T09:16:54.278Z,1.10
2018-12-25T09:17:54.259Z,1.00
2018-12-25T09:18:54.249Z,0.90
2018-12-25T09:19:54.264Z,1.20
2018-12-25T09:20:54.228Z,1.10
2018-12-25T09:21:54.234Z,1.00
2018-12-25T09:22:54.213Z,1.00
2018-12-25T09:23:54.193Z,0.90
2018-12-25T09:24:54.179Z,1.00
2018-12-25T09:25:54.188Z,0.90
2018-12-25T09:26:54.187Z,1.00
2018-12-25T09:27:54.223Z,1.00
2018-12-25T09:28:54.143Z,0.90
2018-12-25T09:29:54.144Z,1.20
2018-12-25T09:30:54.116Z,1.30
2018-12-25T09:31:54.118Z,1.00
2018-12-25T09:32:54.101Z,1.10
2018-12-25T09:33:54.092Z,1.10
2018-12-25T09:34:54.074Z,1.00
2018-12-25T09:35:54.056Z,1.00
2018-12-25T09:36:54.061Z,1.00
2018-12-25T09:37:54.057Z,1.00
2018-12-25T09:38:54.039Z,1.10
2018-12-25T09:39:54.033Z,1.10
2018-12-25T09:40:54.005Z,1.10
2018-12-25T09:41:54.008Z,1.10
2018-12-25T09:42:53.991Z,1.10
2018-12-25T09:43:53.970Z,1.10
2018-12-25T09:44:53.957Z,1.10
2018-12-25T09:45:53.975Z,1.20
2018-12-25T09:46:53.952Z,1.00
2018-12-25T09:47:53.930Z,1.40
2018-12-25T09:48:53.913Z,1.20
2018-12-25T09:49:53.901Z,1.00
2018-12-25T09:50:53.894Z,1.00
2018-12-25T09:51:54.619Z,1.00
2018-12-25T09:52:53.879Z,1.10
2018-12-25T09:53:53.861Z,1.00
2018-12-25T09:54:53.859Z,1.20
2018-12-25T09:55:53.838Z,1.40
2018-12-25T09:56:53.829Z,1.80
2018-12-25T09:57:53.846Z,1.80
2018-12-25T09:58:53.805Z,1.20
2018-12-25T09:59:53.791Z,1.00
2018-12-25T10:00:53.787Z,1.10
2018-12-25T10:01:53.770Z,1.30
2018-12-25T10:02:53.766Z,1.00
2018-12-25T10:03:53.758Z,1.00
2018-12-25T10:04:53.735Z,1.10
2018-12-25T10:05:53.737Z,1.10
2018-12-25T10:06:53.718Z,0.90
2018-12-25T10:07:53.717Z,1.00
2018-12-25T10:08:53.707Z,1.00
2018-12-25T10:09:53.706Z,1.10
2018-12-25T10:10:53.667Z,1.10
2018-12-25T10:11:53.659Z,1.10
2018-12-25T10:12:53.662Z,1.20
2018-12-25T10:13:53.637Z,1.30
2018-12-25T10:14:53.622Z,1.10
2018-12-25T10:15:53.628Z,1.00
2018-12-25T10:16:53.632Z,1.20
2018-12-25T10:17:53.601Z,1.10
2018-12-25T10:18:53.583Z,1.30
2018-12-25T10:19:53.576Z,1.20
2018-12-25T10:20:53.560Z,1.00
2018-12-25T10:21:53.548Z,1.00
2018-12-25T10:22:53.581Z,1.00
2018-12-25T10:23:53.526Z,1.40
2018-12-25T10:24:53.550Z,1.40
2018-12-25T10:25:53.568Z,1.30
2018-12-25T10:26:53.498Z,1.10
2018-12-25T10:27:53.481Z,1.20
2018-12-25T10:28:53.491Z,1.10
2018-12-25T10:29:53.509Z,1.00
2018-12-25T10:30:53.469Z,1.00
2018-12-25T10:31:53.436Z,1.30
2018-12-25T10:32:53.425Z,1.30
2018-12-25T10:33:53.447Z,1.30
2018-12-25T10:34:53.437Z,1.20
2018-12-25T10:35:53.530Z,1.20
2018-12-25T10:36:53.378Z,1.20
2018-12-25T10:37:53.379Z,1.00
2018-12-25T10:38:53.406Z,1.00
2018-12-25T10:39:53.382Z,1.20
2018-12-25T10:40:53.343Z,1.10
2018-12-25T10:41:53.325Z,1.20
2018-12-25T10:42:53.339Z,1.10
2018-12-25T10:43:53.390Z,1.20
2018-12-25T10:44:53.293Z,1.10
2018-12-25T10:45:53.281Z,1.10
2018-12-25T10:46:53.326Z,1.00
2018-12-25T10:47:53.275Z,1.30
2018-12-25T10:48:53.267Z,1.20
2018-12-25T10:49:53.236Z,1.40
2018-12-25T10:50:53.233Z,1.30
2018-12-25T10:51:53.243Z,1.20
2018-12-25T10:52:53.203Z,1.30
2018-12-25T10:53:53.201Z,1.20
2018-12-25T10:54:53.202Z,1.10
2018-12-25T10:55:53.167Z,1.20
2018-12-25T10:56:53.166Z,1.30
2018-12-25T10:57:53.151Z,1.00
2018-12-25T10:58:53.188Z,1.30
2018-12-25T10:59:53.131Z,1.30
2018-12-25T11:00:53.116Z,1.10
2018-12-25T11:01:53.124Z,1.30
2018-12-25T11:02:53.090Z,1.30
2018-12-25T11:03:53.080Z,1.20
2018-12-25T11:04:53.097Z,1.50
2018-12-25T11:05:53.065Z,1.40
2018-12-25T11:06:53.055Z,1.30
2018-12-25T11:07:53.034Z,1.30
2018-12-25T11:08:53.027Z,1.30
2018-12-25T11:09:53.033Z,1.40
2018-12-25T11:10:53.030Z,1.20
2018-12-25T11:11:53.003Z,1.30
2018-12-25T11:12:53.013Z,1.30
2018-12-25T11:13:52.967Z,1.20
2018-12-25T11:14:52.979Z,1.30
2018-12-25T11:15:52.970Z,1.30
2018-12-25T11:16:52.944Z,1.10
2018-12-25T11:17:52.923Z,1.10
2018-12-25T11:18:52.918Z,1.30
2018-12-25T11:19:52.913Z,1.30
2018-12-25T11:20:52.890Z,1.20
2018-12-25T11:21:52.908Z,1.20
2018-12-25T11:22:52.868Z,1.90
2018-12-25T11:23:52.863Z,1.30
2018-12-25T11:24:52.860Z,1.70
2018-12-25T11:25:52.844Z,1.40
2018-12-25T11:26:52.841Z,1.30
2018-12-25T11:27:52.835Z,1.30
2018-12-25T11:28:52.807Z,1.40
2018-12-25T11:29:52.798Z,1.90
2018-12-25T11:30:52.782Z,1.40
2018-12-25T11:31:52.768Z,1.40
2018-12-25T11:32:52.773Z,1.10
2018-12-25T11:33:52.776Z,1.40
2018-12-25T11:34:52.760Z,1.20
2018-12-25T11:35:52.728Z,1.30
2018-12-25T11:36:52.717Z,1.40
2018-12-25T11:37:52.712Z,1.20
2018-12-25T11:38:52.699Z,1.20
2018-12-25T11:39:52.700Z,1.20
2018-12-25T11:40:52.666Z,1.30
2018-12-25T11:41:52.678Z,1.60
2018-12-25T11:42:52.658Z,1.30
2018-12-25T11:43:52.639Z,1.30
2018-12-25T11:44:52.638Z,1.60
2018-12-25T11:45:52.610Z,1.50
2018-12-25T11:46:52.608Z,1.20
2018-12-25T11:47:52.597Z,1.40
2018-12-25T11:48:52.577Z,1.30
2018-12-25T11:49:52.577Z,1.20
2018-12-25T11:50:52.555Z,1.30
2018-12-25T11:51:52.582Z,1.30
2018-12-25T11:52:52.536Z,1.40
2018-12-25T11:53:52.523Z,1.40
2018-12-25T11:54:52.541Z,1.50
2018-12-25T11:55:52.513Z,1.30
2018-12-25T11:56:52.503Z,1.60
2018-12-25T11:57:52.523Z,1.20
2018-12-25T11:58:52.518Z,1.10
2018-12-25T11:59:52.528Z,1.40
2018-12-25T12:00:52.464Z,1.30
2018-12-25T12:01:52.443Z,1.00
2018-12-25T12:02:52.440Z,1.30
2018-12-25T12:03:52.427Z,1.20
2018-12-25T12:04:52.423Z,1.60
2018-12-25T12:05:52.426Z,1.00
2018-12-25T12:06:52.382Z,1.00
2018-12-25T12:07:52.404Z,1.10
2018-12-25T12:08:52.364Z,0.90
2018-12-25T12:09:52.418Z,1.00
2018-12-25T12:10:52.361Z,1.00
2018-12-25T12:11:52.350Z,1.00
2018-12-25T12:12:52.340Z,0.90
2018-12-25T12:13:52.314Z,1.00
2018-12-25T12:14:52.290Z,1.00
2018-12-25T12:15:52.351Z,0.80
2018-12-25T12:16:52.268Z,0.90
2018-12-25T12:17:52.258Z,0.90
2018-12-25T12:18:52.251Z,1.00
2018-12-25T12:19:52.263Z,0.90
2018-12-25T12:20:52.238Z,0.90
2018-12-25T12:21:52.217Z,0.80
2018-12-25T12:22:52.227Z,0.80
2018-12-25T12:23:52.203Z,1.00
2018-12-25T12:24:52.194Z,0.70
2018-12-25T12:25:52.179Z,0.70
2018-12-25T12:26:52.155Z,0.80
2018-12-25T12:27:52.176Z,0.90
2018-12-25T12:28:52.137Z,0.80
2018-12-25T12:29:52.138Z,0.60
2018-12-25T12:30:52.220Z,0.80
2018-12-25T12:31:52.104Z,0.60
2018-12-25T12:32:52.090Z,0.80
2018-12-25T12:33:52.078Z,0.80
2018-12-25T12:34:52.075Z,0.90
2018-12-25T12:35:52.055Z,0.90
2018-12-25T12:36:52.112Z,0.90
2018-12-25T12:37:52.050Z,0.90
2018-12-25T12:38:52.068Z,0.80
2018-12-25T12:39:52.015Z,0.80
2018-12-25T12:40:52.009Z,0.70
2018-12-25T12:41:52.001Z,0.90
2018-12-25T12:42:51.998Z,1.10
2018-12-25T12:43:51.972Z,0.70
2018-12-25T12:44:51.961Z,0.70
2018-12-25T12:45:51.956Z,0.80
2018-12-25T12:46:51.952Z,1.00
2018-12-25T12:47:51.928Z,0.90
2018-12-25T12:48:51.933Z,0.80
2018-12-25T12:49:51.958Z,0.70
2018-12-25T12:50:51.924Z,0.70
2018-12-25T12:51:51.911Z,0.80
2018-12-25T12:52:51.869Z,0.90
2018-12-25T12:53:51.862Z,1.00
2018-12-25T12:54:51.855Z,0.80
2018-12-25T12:55:51.834Z,0.90
2018-12-25T12:56:51.846Z,1.00
2018-12-25T12:57:51.815Z,0.90
2018-12-25T12:58:51.824Z,1.00
2018-12-25T12:59:51.795Z,1.00
2018-12-25T13:00:51.816Z,1.30
2018-12-25T13:01:51.780Z,1.00
2018-12-25T13:02:51.780Z,1.00
2018-12-25T13:03:51.771Z,1.30
2018-12-25T13:04:51.735Z,0.80
2018-12-25T13:05:51.725Z,1.00
2018-12-25T13:06:51.725Z,0.90
2018-12-25T13:07:51.709Z,1.10
2018-12-25T13:08:51.718Z,0.90
2018-12-25T13:09:56.615Z,1.00
2018-12-25T13:10:51.673Z,0.90
2018-12-25T13:11:51.707Z,1.00
2018-12-25T13:12:51.658Z,1.00
2018-12-25T13:13:51.635Z,0.90
2018-12-25T13:14:51.641Z,1.00
2018-12-25T13:15:51.627Z,1.00
2018-12-25T13:16:51.603Z,1.00
2018-12-25T13:17:51.637Z,1.00